sensor_id;sensor_type;location;lat;lon;timestamp;P1;durP1;ratioP1;P2;durP2;ratioP2
21624;SDS011;10974;51.034;3.744;2023-01-23T04:19:06;20.37;;;13.40;;
21624;SDS011;10974;51.034;3.744;2023-01-23T04:21:32;19.43;;;13.80;;
21624;SDS011;10974;51.034;3.744;2023-01-23T04:23:58;21.27;;;14.30;;
21624;SDS011;10974;51.034;3.744;2023-01-23T04:26:25;25.23;;;15.80;;
21624;SDS011;10974;51.034;3.744;2023-01-23T04:28:51;24.30;;;15.60;;
21624;SDS011;10974;51.034;3.744;2023-01-23T04:31:17;20.40;;;15.50;;
21624;SDS011;10974;51.034;3.744;2023-01-23T04:33:43;20.20;;;13.67;;
21624;SDS011;10974;51.034;3.744;2023-01-23T04:36:09;22.40;;;15.47;;
21624;SDS011;10974;51.034;3.744;2023-01-23T04:38:36;20.93;;;14.83;;
21624;SDS011;10974;51.034;3.744;2023-01-23T04:41:02;25.43;;;16.33;;
21624;SDS011;10974;51.034;3.744;2023-01-23T04:43:28;22.83;;;16.33;;
21624;SDS011;10974;51.034;3.744;2023-01-23T04:45:54;23.60;;;16.60;;
21624;SDS011;10974;51.034;3.744;2023-01-23T04:48:21;23.77;;;16.40;;
21624;SDS011;10974;51.034;3.744;2023-01-23T04:50:48;27.43;;;16.23;;
21624;SDS011;10974;51.034;3.744;2023-01-23T04:53:14;22.10;;;16.13;;
21624;SDS011;10974;51.034;3.744;2023-01-23T04:55:40;23.63;;;16.20;;
21624;SDS011;10974;51.034;3.744;2023-01-23T04:58:06;24.80;;;16.37;;
21624;SDS011;10974;51.034;3.744;2023-01-23T05:00:35;21.33;;;15.90;;
21624;SDS011;10974;51.034;3.744;2023-01-23T05:03:01;23.30;;;17.10;;
21624;SDS011;10974;51.034;3.744;2023-01-23T05:05:27;21.33;;;16.53;;
21624;SDS011;10974;51.034;3.744;2023-01-23T05:07:53;26.03;;;18.17;;
21624;SDS011;10974;51.034;3.744;2023-01-23T05:10:19;24.27;;;17.40;;
21624;SDS011;10974;51.034;3.744;2023-01-23T05:12:45;29.20;;;17.70;;
21624;SDS011;10974;51.034;3.744;2023-01-23T05:15:11;24.67;;;17.50;;
21624;SDS011;10974;51.034;3.744;2023-01-23T05:17:37;26.77;;;19.30;;
21624;SDS011;10974;51.034;3.744;2023-01-23T05:20:03;28.80;;;18.07;;
21624;SDS011;10974;51.034;3.744;2023-01-23T05:22:30;28.00;;;18.43;;
21624;SDS011;10974;51.034;3.744;2023-01-23T05:24:57;29.17;;;19.20;;
21624;SDS011;10974;51.034;3.744;2023-01-23T05:27:23;31.70;;;20.57;;
21624;SDS011;10974;51.034;3.744;2023-01-23T05:29:49;27.70;;;19.40;;
21624;SDS011;10974;51.034;3.744;2023-01-23T05:32:16;27.90;;;19.47;;
21624;SDS011;10974;51.034;3.744;2023-01-23T05:34:42;26.70;;;18.10;;
21624;SDS011;10974;51.034;3.744;2023-01-23T05:37:09;31.10;;;19.50;;
21624;SDS011;10974;51.034;3.744;2023-01-23T05:39:35;29.47;;;19.70;;
21624;SDS011;10974;51.034;3.744;2023-01-23T05:42:01;25.47;;;18.60;;
21624;SDS011;10974;51.034;3.744;2023-01-23T05:44:27;29.97;;;20.43;;
21624;SDS011;10974;51.034;3.744;2023-01-23T05:46:54;29.67;;;20.37;;
21624;SDS011;10974;51.034;3.744;2023-01-23T05:49:20;29.00;;;19.00;;
21624;SDS011;10974;51.034;3.744;2023-01-23T05:51:46;36.33;;;21.93;;
21624;SDS011;10974;51.034;3.744;2023-01-23T05:54:12;32.13;;;20.40;;
21624;SDS011;10974;51.034;3.744;2023-01-23T05:56:38;30.13;;;20.63;;
21624;SDS011;10974;51.034;3.744;2023-01-23T05:59:04;29.97;;;20.23;;
21624;SDS011;10974;51.034;3.744;2023-01-23T06:01:30;27.30;;;18.80;;
21624;SDS011;10974;51.034;3.744;2023-01-23T06:03:56;27.40;;;19.07;;
21624;SDS011;10974;51.034;3.744;2023-01-23T06:06:22;26.30;;;18.90;;
21624;SDS011;10974;51.034;3.744;2023-01-23T06:08:48;31.23;;;19.53;;
21624;SDS011;10974;51.034;3.744;2023-01-23T06:11:14;31.27;;;21.00;;
21624;SDS011;10974;51.034;3.744;2023-01-23T06:13:40;31.50;;;20.33;;
21624;SDS011;10974;51.034;3.744;2023-01-23T06:16:06;33.30;;;22.07;;
21624;SDS011;10974;51.034;3.744;2023-01-23T06:18:33;32.80;;;21.63;;
21624;SDS011;10974;51.034;3.744;2023-01-23T06:21:00;31.80;;;20.60;;
21624;SDS011;10974;51.034;3.744;2023-01-23T06:23:26;28.67;;;19.87;;
21624;SDS011;10974;51.034;3.744;2023-01-23T06:25:52;30.80;;;19.97;;
21624;SDS011;10974;51.034;3.744;2023-01-23T06:28:19;28.07;;;19.80;;
21624;SDS011;10974;51.034;3.744;2023-01-23T06:30:45;79.23;;;19.43;;
21624;SDS011;10974;51.034;3.744;2023-01-23T06:33:11;29.60;;;19.30;;
21624;SDS011;10974;51.034;3.744;2023-01-23T06:35:37;27.30;;;18.87;;
21624;SDS011;10974;51.034;3.744;2023-01-23T06:38:03;31.20;;;20.33;;
21624;SDS011;10974;51.034;3.744;2023-01-23T06:40:29;28.27;;;17.20;;
21624;SDS011;10974;51.034;3.744;2023-01-23T06:42:55;29.23;;;20.40;;
21624;SDS011;10974;51.034;3.744;2023-01-23T06:45:21;27.43;;;18.33;;
21624;SDS011;10974;51.034;3.744;2023-01-23T06:47:47;29.10;;;20.30;;
21624;SDS011;10974;51.034;3.744;2023-01-23T06:50:14;29.37;;;19.70;;
21624;SDS011;10974;51.034;3.744;2023-01-23T06:52:40;27.57;;;18.77;;
21624;SDS011;10974;51.034;3.744;2023-01-23T06:55:06;27.87;;;17.63;;
21624;SDS011;10974;51.034;3.744;2023-01-23T06:57:32;25.93;;;17.90;;
21624;SDS011;10974;51.034;3.744;2023-01-23T06:59:58;23.60;;;16.87;;
21624;SDS011;10974;51.034;3.744;2023-01-23T07:02:24;29.73;;;18.40;;
21624;SDS011;10974;51.034;3.744;2023-01-23T07:04:50;25.13;;;17.03;;
21624;SDS011;10974;51.034;3.744;2023-01-23T07:07:17;25.90;;;16.33;;
21624;SDS011;10974;51.034;3.744;2023-01-23T07:09:43;26.30;;;16.77;;
21624;SDS011;10974;51.034;3.744;2023-01-23T07:12:09;23.63;;;16.87;;
21624;SDS011;10974;51.034;3.744;2023-01-23T07:14:35;24.87;;;16.43;;
21624;SDS011;10974;51.034;3.744;2023-01-23T07:17:01;22.10;;;16.40;;
21624;SDS011;10974;51.034;3.744;2023-01-23T07:19:28;26.33;;;17.90;;
21624;SDS011;10974;51.034;3.744;2023-01-23T07:21:54;27.23;;;15.77;;
21624;SDS011;10974;51.034;3.744;2023-01-23T07:24:20;24.33;;;17.30;;
21624;SDS011;10974;51.034;3.744;2023-01-23T07:26:46;23.57;;;16.00;;
21624;SDS011;10974;51.034;3.744;2023-01-23T07:29:12;25.30;;;16.43;;
21624;SDS011;10974;51.034;3.744;2023-01-23T07:31:38;26.23;;;16.70;;
21624;SDS011;10974;51.034;3.744;2023-01-23T07:34:04;23.03;;;16.57;;
21624;SDS011;10974;51.034;3.744;2023-01-23T07:36:30;23.50;;;15.63;;
21624;SDS011;10974;51.034;3.744;2023-01-23T07:38:56;29.43;;;18.00;;
21624;SDS011;10974;51.034;3.744;2023-01-23T07:41:23;26.57;;;18.20;;
21624;SDS011;10974;51.034;3.744;2023-01-23T07:43:49;29.77;;;18.53;;
21624;SDS011;10974;51.034;3.744;2023-01-23T07:46:15;25.67;;;17.20;;
21624;SDS011;10974;51.034;3.744;2023-01-23T07:48:41;27.90;;;18.03;;
21624;SDS011;10974;51.034;3.744;2023-01-23T07:51:07;25.00;;;16.80;;
21624;SDS011;10974;51.034;3.744;2023-01-23T07:53:33;27.97;;;18.23;;
21624;SDS011;10974;51.034;3.744;2023-01-23T07:56:02;29.57;;;18.50;;
21624;SDS011;10974;51.034;3.744;2023-01-23T07:58:28;29.57;;;18.67;;
21624;SDS011;10974;51.034;3.744;2023-01-23T08:00:54;28.17;;;18.90;;
21624;SDS011;10974;51.034;3.744;2023-01-23T08:03:20;28.77;;;19.27;;
21624;SDS011;10974;51.034;3.744;2023-01-23T08:05:47;27.07;;;18.53;;
21624;SDS011;10974;51.034;3.744;2023-01-23T08:08:13;27.00;;;17.60;;
21624;SDS011;10974;51.034;3.744;2023-01-23T08:10:40;27.57;;;16.97;;
21624;SDS011;10974;51.034;3.744;2023-01-23T08:13:06;27.53;;;18.87;;
21624;SDS011;10974;51.034;3.744;2023-01-23T08:15:32;32.83;;;19.40;;
21624;SDS011;10974;51.034;3.744;2023-01-23T08:17:58;34.73;;;19.20;;
21624;SDS011;10974;51.034;3.744;2023-01-23T08:20:24;30.13;;;19.43;;
21624;SDS011;10974;51.034;3.744;2023-01-23T08:22:50;30.70;;;18.83;;
21624;SDS011;10974;51.034;3.744;2023-01-23T08:25:16;28.23;;;17.40;;
21624;SDS011;10974;51.034;3.744;2023-01-23T08:27:42;31.93;;;19.37;;
21624;SDS011;10974;51.034;3.744;2023-01-23T08:30:08;29.13;;;19.43;;
21624;SDS011;10974;51.034;3.744;2023-01-23T08:32:35;27.00;;;18.27;;
21624;SDS011;10974;51.034;3.744;2023-01-23T08:35:01;29.10;;;18.20;;
21624;SDS011;10974;51.034;3.744;2023-01-23T08:37:28;28.73;;;18.40;;
21624;SDS011;10974;51.034;3.744;2023-01-23T08:39:54;26.43;;;17.80;;
21624;SDS011;10974;51.034;3.744;2023-01-23T08:42:20;26.97;;;18.47;;
21624;SDS011;10974;51.034;3.744;2023-01-23T08:44:46;26.35;;;17.73;;
21624;SDS011;10974;51.034;3.744;2023-01-23T08:47:12;28.80;;;17.87;;
21624;SDS011;10974;51.034;3.744;2023-01-23T08:49:38;25.63;;;17.47;;
21624;SDS011;10974;51.034;3.744;2023-01-23T08:52:04;27.47;;;18.50;;
21624;SDS011;10974;51.034;3.744;2023-01-23T08:54:31;30.30;;;19.20;;
21624;SDS011;10974;51.034;3.744;2023-01-23T08:56:57;28.43;;;18.83;;
21624;SDS011;10974;51.034;3.744;2023-01-23T08:59:23;23.20;;;16.73;;
21624;SDS011;10974;51.034;3.744;2023-01-23T09:01:49;27.23;;;17.83;;
21624;SDS011;10974;51.034;3.744;2023-01-23T09:04:16;23.87;;;16.67;;
21624;SDS011;10974;51.034;3.744;2023-01-23T09:06:42;26.77;;;17.40;;
21624;SDS011;10974;51.034;3.744;2023-01-23T09:09:08;26.97;;;18.00;;
21624;SDS011;10974;51.034;3.744;2023-01-23T09:11:34;24.13;;;15.97;;
21624;SDS011;10974;51.034;3.744;2023-01-23T09:14:00;30.07;;;18.57;;
21624;SDS011;10974;51.034;3.744;2023-01-23T09:16:26;31.43;;;18.70;;
21624;SDS011;10974;51.034;3.744;2023-01-23T09:18:53;27.67;;;17.97;;
21624;SDS011;10974;51.034;3.744;2023-01-23T09:21:19;28.93;;;18.80;;
21624;SDS011;10974;51.034;3.744;2023-01-23T09:23:45;28.50;;;19.80;;
21624;SDS011;10974;51.034;3.744;2023-01-23T09:26:12;29.00;;;18.70;;
21624;SDS011;10974;51.034;3.744;2023-01-23T09:28:39;26.63;;;18.07;;
21624;SDS011;10974;51.034;3.744;2023-01-23T09:31:07;24.40;;;18.33;;
21624;SDS011;10974;51.034;3.744;2023-01-23T09:33:35;29.97;;;20.10;;
21624;SDS011;10974;51.034;3.744;2023-01-23T09:36:01;27.20;;;17.97;;
21624;SDS011;10974;51.034;3.744;2023-01-23T09:38:28;23.57;;;17.03;;
21624;SDS011;10974;51.034;3.744;2023-01-23T09:40:55;30.30;;;17.90;;
21624;SDS011;10974;51.034;3.744;2023-01-23T09:45:59;25.60;;;17.60;;
21624;SDS011;10974;51.034;3.744;2023-01-23T09:48:41;29.37;;;18.97;;
21624;SDS011;10974;51.034;3.744;2023-01-23T09:51:13;27.53;;;19.20;;
21624;SDS011;10974;51.034;3.744;2023-01-23T09:53:41;25.20;;;17.30;;
21624;SDS011;10974;51.034;3.744;2023-01-23T09:56:20;32.03;;;19.60;;
21624;SDS011;10974;51.034;3.744;2023-01-23T09:58:56;27.77;;;19.17;;
21624;SDS011;10974;51.034;3.744;2023-01-23T10:01:24;30.57;;;18.93;;
21624;SDS011;10974;51.034;3.744;2023-01-23T10:03:52;26.87;;;18.53;;
21624;SDS011;10974;51.034;3.744;2023-01-23T10:06:20;30.60;;;20.47;;
21624;SDS011;10974;51.034;3.744;2023-01-23T10:09:06;33.47;;;20.00;;
21624;SDS011;10974;51.034;3.744;2023-01-23T10:19:14;28.57;;;19.33;;
21624;SDS011;10974;51.034;3.744;2023-01-23T10:26:39;35.97;;;21.87;;
21624;SDS011;10974;51.034;3.744;2023-01-23T10:29:14;36.57;;;21.37;;
21624;SDS011;10974;51.034;3.744;2023-01-23T10:31:50;30.40;;;20.80;;
21624;SDS011;10974;51.034;3.744;2023-01-23T10:34:42;30.87;;;21.33;;
21624;SDS011;10974;51.034;3.744;2023-01-23T10:39:53;32.30;;;21.03;;
21624;SDS011;10974;51.034;3.744;2023-01-23T10:42:21;29.97;;;19.83;;
21624;SDS011;10974;51.034;3.744;2023-01-23T10:44:48;32.93;;;21.43;;
21624;SDS011;10974;51.034;3.744;2023-01-23T10:47:25;32.90;;;20.97;;
21624;SDS011;10974;51.034;3.744;2023-01-23T10:49:54;30.37;;;21.07;;
21624;SDS011;10974;51.034;3.744;2023-01-23T10:52:27;31.50;;;22.27;;
21624;SDS011;10974;51.034;3.744;2023-01-23T10:54:54;32.23;;;21.00;;
21624;SDS011;10974;51.034;3.744;2023-01-23T10:57:24;31.23;;;20.37;;
21624;SDS011;10974;51.034;3.744;2023-01-23T10:59:57;27.90;;;20.40;;
21624;SDS011;10974;51.034;3.744;2023-01-23T11:02:31;28.90;;;20.50;;
21624;SDS011;10974;51.034;3.744;2023-01-23T11:04:58;31.83;;;21.27;;
21624;SDS011;10974;51.034;3.744;2023-01-23T11:07:28;30.07;;;20.07;;
21624;SDS011;10974;51.034;3.744;2023-01-23T11:09:56;32.33;;;22.53;;
21624;SDS011;10974;51.034;3.744;2023-01-23T11:14:48;31.90;;;21.40;;
21624;SDS011;10974;51.034;3.744;2023-01-23T11:17:24;35.23;;;22.93;;
21624;SDS011;10974;51.034;3.744;2023-01-23T11:19:57;33.53;;;22.37;;
21624;SDS011;10974;51.034;3.744;2023-01-23T11:24:53;31.27;;;21.20;;
21624;SDS011;10974;51.034;3.744;2023-01-23T11:27:20;32.37;;;22.43;;
21624;SDS011;10974;51.034;3.744;2023-01-23T11:32:54;30.77;;;20.80;;
21624;SDS011;10974;51.034;3.744;2023-01-23T11:35:24;26.07;;;18.47;;
21624;SDS011;10974;51.034;3.744;2023-01-23T11:37:53;25.73;;;17.83;;
21624;SDS011;10974;51.034;3.744;2023-01-23T11:40:21;25.60;;;17.90;;
21624;SDS011;10974;51.034;3.744;2023-01-23T11:42:47;22.93;;;16.57;;
21624;SDS011;10974;51.034;3.744;2023-01-23T11:47:55;25.03;;;15.97;;
21624;SDS011;10974;51.034;3.744;2023-01-23T12:03:42;27.00;;;19.10;;
21624;SDS011;10974;51.034;3.744;2023-01-23T12:08:52;29.70;;;19.73;;
21624;SDS011;10974;51.034;3.744;2023-01-23T12:11:18;28.90;;;20.20;;
21624;SDS011;10974;51.034;3.744;2023-01-23T12:26:27;31.10;;;20.90;;
21624;SDS011;10974;51.034;3.744;2023-01-23T12:34:15;29.37;;;19.93;;
21624;SDS011;10974;51.034;3.744;2023-01-23T12:39:27;30.10;;;20.27;;
21624;SDS011;10974;51.034;3.744;2023-01-23T12:42:00;31.03;;;22.73;;
21624;SDS011;10974;51.034;3.744;2023-01-23T12:46:55;31.87;;;21.83;;
21624;SDS011;10974;51.034;3.744;2023-01-23T12:49:32;34.30;;;23.07;;
21624;SDS011;10974;51.034;3.744;2023-01-23T12:54:42;36.47;;;22.87;;
21624;SDS011;10974;51.034;3.744;2023-01-23T12:57:08;35.20;;;23.70;;
21624;SDS011;10974;51.034;3.744;2023-01-23T13:02:23;35.20;;;22.37;;
21624;SDS011;10974;51.034;3.744;2023-01-23T13:07:57;35.33;;;25.37;;
21624;SDS011;10974;51.034;3.744;2023-01-23T13:13:21;34.27;;;22.80;;
21624;SDS011;10974;51.034;3.744;2023-01-23T13:16:00;32.40;;;23.20;;
21624;SDS011;10974;51.034;3.744;2023-01-23T13:18:26;32.50;;;21.80;;
21624;SDS011;10974;51.034;3.744;2023-01-23T13:23:39;31.77;;;21.53;;
21624;SDS011;10974;51.034;3.744;2023-01-23T13:28:46;26.67;;;19.67;;
21624;SDS011;10974;51.034;3.744;2023-01-23T13:33:50;25.53;;;18.63;;
21624;SDS011;10974;51.034;3.744;2023-01-23T13:41:31;26.83;;;18.60;;
21624;SDS011;10974;51.034;3.744;2023-01-23T13:44:01;26.47;;;17.83;;
21624;SDS011;10974;51.034;3.744;2023-01-23T13:52:05;24.13;;;16.73;;
21624;SDS011;10974;51.034;3.744;2023-01-23T13:54:53;27.33;;;18.40;;
21624;SDS011;10974;51.034;3.744;2023-01-23T13:57:38;27.80;;;19.43;;
21624;SDS011;10974;51.034;3.744;2023-01-23T14:00:04;29.57;;;20.23;;
21624;SDS011;10974;51.034;3.744;2023-01-23T14:02:36;29.27;;;20.47;;
21624;SDS011;10974;51.034;3.744;2023-01-23T14:05:23;29.63;;;20.03;;
21624;SDS011;10974;51.034;3.744;2023-01-23T14:07:58;29.80;;;21.83;;
21624;SDS011;10974;51.034;3.744;2023-01-23T14:10:26;33.23;;;21.90;;
21624;SDS011;10974;51.034;3.744;2023-01-23T14:13:12;33.00;;;23.77;;
21624;SDS011;10974;51.034;3.744;2023-01-23T14:15:39;36.23;;;26.33;;
21624;SDS011;10974;51.034;3.744;2023-01-23T14:21:12;37.27;;;26.47;;
21624;SDS011;10974;51.034;3.744;2023-01-23T14:23:40;37.17;;;26.80;;
21624;SDS011;10974;51.034;3.744;2023-01-23T14:26:08;35.73;;;24.60;;
21624;SDS011;10974;51.034;3.744;2023-01-23T14:28:36;39.77;;;25.33;;
21624;SDS011;10974;51.034;3.744;2023-01-23T14:31:03;35.60;;;24.90;;
21624;SDS011;10974;51.034;3.744;2023-01-23T14:33:42;39.40;;;26.10;;
21624;SDS011;10974;51.034;3.744;2023-01-23T14:36:15;34.73;;;25.40;;
21624;SDS011;10974;51.034;3.744;2023-01-23T14:38:43;38.20;;;26.90;;
21624;SDS011;10974;51.034;3.744;2023-01-23T14:41:09;37.63;;;26.10;;
21624;SDS011;10974;51.034;3.744;2023-01-23T14:43:35;38.03;;;25.90;;
21624;SDS011;10974;51.034;3.744;2023-01-23T14:46:09;33.43;;;24.47;;
21624;SDS011;10974;51.034;3.744;2023-01-23T14:48:36;36.97;;;24.87;;
21624;SDS011;10974;51.034;3.744;2023-01-23T14:51:07;34.33;;;24.07;;
21624;SDS011;10974;51.034;3.744;2023-01-23T14:53:37;34.03;;;24.20;;
21624;SDS011;10974;51.034;3.744;2023-01-23T14:56:03;35.53;;;22.73;;
21624;SDS011;10974;51.034;3.744;2023-01-23T14:58:30;32.60;;;23.40;;
21624;SDS011;10974;51.034;3.744;2023-01-23T15:00:57;30.03;;;20.43;;
21624;SDS011;10974;51.034;3.744;2023-01-23T15:03:36;30.63;;;20.80;;
21624;SDS011;10974;51.034;3.744;2023-01-23T15:06:04;31.67;;;22.40;;
21624;SDS011;10974;51.034;3.744;2023-01-23T15:08:31;28.50;;;19.97;;
21624;SDS011;10974;51.034;3.744;2023-01-23T15:10:59;29.87;;;21.80;;
21624;SDS011;10974;51.034;3.744;2023-01-23T15:13:48;29.40;;;21.30;;
21624;SDS011;10974;51.034;3.744;2023-01-23T15:16:23;27.27;;;20.10;;
21624;SDS011;10974;51.034;3.744;2023-01-23T15:21:26;26.70;;;19.43;;
21624;SDS011;10974;51.034;3.744;2023-01-23T15:28:59;26.17;;;19.50;;
21624;SDS011;10974;51.034;3.744;2023-01-23T15:33:56;27.30;;;19.57;;
21624;SDS011;10974;51.034;3.744;2023-01-23T15:36:31;29.50;;;20.73;;
21624;SDS011;10974;51.034;3.744;2023-01-23T15:38:57;28.27;;;20.10;;
21624;SDS011;10974;51.034;3.744;2023-01-23T15:44:23;26.83;;;18.47;;
21624;SDS011;10974;51.034;3.744;2023-01-23T15:46:49;32.47;;;19.83;;
21624;SDS011;10974;51.034;3.744;2023-01-23T15:49:15;27.57;;;18.50;;
21624;SDS011;10974;51.034;3.744;2023-01-23T15:51:42;24.10;;;17.27;;
21624;SDS011;10974;51.034;3.744;2023-01-23T15:54:14;30.30;;;18.73;;
21624;SDS011;10974;51.034;3.744;2023-01-23T15:56:41;25.80;;;18.77;;
21624;SDS011;10974;51.034;3.744;2023-01-23T15:59:13;26.23;;;18.53;;
21624;SDS011;10974;51.034;3.744;2023-01-23T16:01:39;24.80;;;17.10;;
21624;SDS011;10974;51.034;3.744;2023-01-23T16:04:05;25.70;;;16.67;;
21624;SDS011;10974;51.034;3.744;2023-01-23T16:06:31;31.47;;;17.20;;
21624;SDS011;10974;51.034;3.744;2023-01-23T16:08:58;22.83;;;16.87;;
21624;SDS011;10974;51.034;3.744;2023-01-23T16:11:25;26.13;;;18.27;;
21624;SDS011;10974;51.034;3.744;2023-01-23T16:13:51;24.87;;;17.70;;
21624;SDS011;10974;51.034;3.744;2023-01-23T16:16:18;31.33;;;18.17;;
21624;SDS011;10974;51.034;3.744;2023-01-23T16:18:44;23.50;;;16.60;;
21624;SDS011;10974;51.034;3.744;2023-01-23T16:21:12;107.90;;;18.60;;
21624;SDS011;10974;51.034;3.744;2023-01-23T16:23:38;26.60;;;18.27;;
21624;SDS011;10974;51.034;3.744;2023-01-23T16:26:04;23.27;;;16.93;;
21624;SDS011;10974;51.034;3.744;2023-01-23T16:28:30;27.10;;;16.50;;
21624;SDS011;10974;51.034;3.744;2023-01-23T16:30:57;24.13;;;16.90;;
21624;SDS011;10974;51.034;3.744;2023-01-23T16:33:23;23.50;;;17.13;;
21624;SDS011;10974;51.034;3.744;2023-01-23T16:35:49;26.53;;;17.00;;
21624;SDS011;10974;51.034;3.744;2023-01-23T16:38:26;22.63;;;15.07;;
21624;SDS011;10974;51.034;3.744;2023-01-23T16:40:53;23.97;;;16.33;;
21624;SDS011;10974;51.034;3.744;2023-01-23T16:43:20;26.20;;;17.93;;
21624;SDS011;10974;51.034;3.744;2023-01-23T16:45:46;23.43;;;16.50;;
21624;SDS011;10974;51.034;3.744;2023-01-23T16:48:12;25.90;;;14.63;;
21624;SDS011;10974;51.034;3.744;2023-01-23T16:50:38;20.93;;;13.87;;
21624;SDS011;10974;51.034;3.744;2023-01-23T16:53:07;20.00;;;14.70;;
21624;SDS011;10974;51.034;3.744;2023-01-23T16:55:35;18.40;;;13.73;;
21624;SDS011;10974;51.034;3.744;2023-01-23T16:58:01;18.50;;;13.63;;
21624;SDS011;10974;51.034;3.744;2023-01-23T17:00:27;21.20;;;15.00;;
21624;SDS011;10974;51.034;3.744;2023-01-23T17:02:55;17.77;;;14.03;;
21624;SDS011;10974;51.034;3.744;2023-01-23T17:05:22;17.80;;;13.73;;
21624;SDS011;10974;51.034;3.744;2023-01-23T17:07:48;18.73;;;13.70;;
21624;SDS011;10974;51.034;3.744;2023-01-23T17:10:18;16.27;;;11.67;;
21624;SDS011;10974;51.034;3.744;2023-01-23T17:12:46;17.20;;;12.50;;
21624;SDS011;10974;51.034;3.744;2023-01-23T17:15:17;16.40;;;11.43;;
21624;SDS011;10974;51.034;3.744;2023-01-23T17:17:44;16.87;;;12.30;;
21624;SDS011;10974;51.034;3.744;2023-01-23T17:20:12;16.23;;;11.33;;
21624;SDS011;10974;51.034;3.744;2023-01-23T17:22:39;19.37;;;13.27;;
21624;SDS011;10974;51.034;3.744;2023-01-23T17:25:12;15.43;;;12.90;;
21624;SDS011;10974;51.034;3.744;2023-01-23T17:27:38;18.20;;;12.93;;
21624;SDS011;10974;51.034;3.744;2023-01-23T17:30:05;17.10;;;12.70;;
21624;SDS011;10974;51.034;3.744;2023-01-23T17:32:33;25.70;;;15.40;;
21624;SDS011;10974;51.034;3.744;2023-01-23T17:35:00;20.07;;;13.77;;
21624;SDS011;10974;51.034;3.744;2023-01-23T17:37:27;17.80;;;14.17;;
21624;SDS011;10974;51.034;3.744;2023-01-23T17:39:53;18.10;;;13.53;;
21624;SDS011;10974;51.034;3.744;2023-01-23T17:42:19;18.40;;;13.80;;
21624;SDS011;10974;51.034;3.744;2023-01-23T17:44:46;17.63;;;13.70;;
21624;SDS011;10974;51.034;3.744;2023-01-23T17:47:12;16.70;;;11.70;;
21624;SDS011;10974;51.034;3.744;2023-01-23T17:49:38;17.10;;;12.77;;
21624;SDS011;10974;51.034;3.744;2023-01-23T17:52:04;21.70;;;13.90;;
21624;SDS011;10974;51.034;3.744;2023-01-23T17:54:31;18.07;;;13.80;;
21624;SDS011;10974;51.034;3.744;2023-01-23T17:56:57;15.87;;;12.73;;
21624;SDS011;10974;51.034;3.744;2023-01-23T17:59:23;18.90;;;14.63;;
21624;SDS011;10974;51.034;3.744;2023-01-23T18:01:49;20.10;;;15.47;;
21624;SDS011;10974;51.034;3.744;2023-01-23T18:04:16;21.00;;;16.97;;
21624;SDS011;10974;51.034;3.744;2023-01-23T18:06:43;20.97;;;15.93;;
21624;SDS011;10974;51.034;3.744;2023-01-23T18:09:09;382.00;;;28.33;;
21624;SDS011;10974;51.034;3.744;2023-01-23T18:11:36;20.13;;;14.60;;
21624;SDS011;10974;51.034;3.744;2023-01-23T18:16:33;19.57;;;15.23;;
21624;SDS011;10974;51.034;3.744;2023-01-23T18:19:09;20.30;;;16.20;;
21624;SDS011;10974;51.034;3.744;2023-01-23T18:21:37;20.50;;;15.67;;
21624;SDS011;10974;51.034;3.744;2023-01-23T18:24:03;21.80;;;15.83;;
21624;SDS011;10974;51.034;3.744;2023-01-23T18:32:08;22.00;;;16.70;;
21624;SDS011;10974;51.034;3.744;2023-01-23T18:34:57;22.53;;;16.60;;
21624;SDS011;10974;51.034;3.744;2023-01-23T18:40:34;22.60;;;16.17;;
21624;SDS011;10974;51.034;3.744;2023-01-23T18:45:33;24.53;;;16.07;;
21624;SDS011;10974;51.034;3.744;2023-01-23T18:47:59;20.30;;;15.00;;
21624;SDS011;10974;51.034;3.744;2023-01-23T18:50:25;21.53;;;15.23;;
21624;SDS011;10974;51.034;3.744;2023-01-23T18:53:11;18.83;;;14.80;;
21624;SDS011;10974;51.034;3.744;2023-01-23T18:55:44;21.40;;;15.73;;
21624;SDS011;10974;51.034;3.744;2023-01-23T18:58:29;20.63;;;15.93;;
21624;SDS011;10974;51.034;3.744;2023-01-23T19:03:43;22.90;;;15.57;;
21624;SDS011;10974;51.034;3.744;2023-01-23T19:06:23;21.90;;;15.67;;
21624;SDS011;10974;51.034;3.744;2023-01-23T19:08:50;21.00;;;16.10;;
21624;SDS011;10974;51.034;3.744;2023-01-23T19:16:55;21.33;;;16.17;;
21624;SDS011;10974;51.034;3.744;2023-01-23T19:19:31;24.77;;;17.07;;
21624;SDS011;10974;51.034;3.744;2023-01-23T19:22:00;20.40;;;15.50;;
21624;SDS011;10974;51.034;3.744;2023-01-23T19:24:29;23.80;;;18.20;;
21624;SDS011;10974;51.034;3.744;2023-01-23T19:26:55;21.53;;;16.03;;
21624;SDS011;10974;51.034;3.744;2023-01-23T19:29:21;24.10;;;17.67;;
21624;SDS011;10974;51.034;3.744;2023-01-23T19:31:47;21.33;;;16.77;;
21624;SDS011;10974;51.034;3.744;2023-01-23T19:34:14;23.60;;;17.93;;
21624;SDS011;10974;51.034;3.744;2023-01-23T19:36:40;103.20;;;19.77;;
21624;SDS011;10974;51.034;3.744;2023-01-23T19:39:06;21.47;;;16.60;;
21624;SDS011;10974;51.034;3.744;2023-01-23T19:43:58;23.60;;;17.80;;
21624;SDS011;10974;51.034;3.744;2023-01-23T19:46:27;22.90;;;17.77;;
21624;SDS011;10974;51.034;3.744;2023-01-23T19:48:54;22.40;;;18.13;;
21624;SDS011;10974;51.034;3.744;2023-01-23T19:51:21;23.90;;;17.73;;
21624;SDS011;10974;51.034;3.744;2023-01-23T19:53:50;25.20;;;19.60;;
21624;SDS011;10974;51.034;3.744;2023-01-23T19:56:16;23.23;;;17.40;;
21624;SDS011;10974;51.034;3.744;2023-01-23T19:58:42;21.60;;;18.00;;
21624;SDS011;10974;51.034;3.744;2023-01-23T20:03:37;23.17;;;17.90;;
21624;SDS011;10974;51.034;3.744;2023-01-23T20:06:05;23.17;;;17.70;;
21624;SDS011;10974;51.034;3.744;2023-01-23T20:08:31;22.07;;;16.40;;
21624;SDS011;10974;51.034;3.744;2023-01-23T20:10:57;285.40;;;24.67;;
21624;SDS011;10974;51.034;3.744;2023-01-23T20:13:23;23.07;;;18.27;;
21624;SDS011;10974;51.034;3.744;2023-01-23T20:15:49;21.30;;;16.87;;
21624;SDS011;10974;51.034;3.744;2023-01-23T20:18:15;21.50;;;16.60;;
21624;SDS011;10974;51.034;3.744;2023-01-23T20:20:42;21.53;;;17.33;;
21624;SDS011;10974;51.034;3.744;2023-01-23T20:23:08;21.10;;;17.47;;
21624;SDS011;10974;51.034;3.744;2023-01-23T20:25:34;22.20;;;17.20;;
21624;SDS011;10974;51.034;3.744;2023-01-23T20:28:00;24.93;;;18.77;;
21624;SDS011;10974;51.034;3.744;2023-01-23T20:30:26;21.20;;;17.17;;
21624;SDS011;10974;51.034;3.744;2023-01-23T20:32:52;18.33;;;15.47;;
21624;SDS011;10974;51.034;3.744;2023-01-23T20:35:18;22.17;;;17.90;;
21624;SDS011;10974;51.034;3.744;2023-01-23T20:37:44;20.17;;;16.03;;
21624;SDS011;10974;51.034;3.744;2023-01-23T20:40:10;20.43;;;15.50;;
21624;SDS011;10974;51.034;3.744;2023-01-23T20:42:37;21.13;;;17.10;;
21624;SDS011;10974;51.034;3.744;2023-01-23T20:45:03;19.70;;;15.43;;
21624;SDS011;10974;51.034;3.744;2023-01-23T20:47:29;20.63;;;15.67;;
21624;SDS011;10974;51.034;3.744;2023-01-23T20:49:55;21.77;;;17.13;;
21624;SDS011;10974;51.034;3.744;2023-01-23T20:52:21;21.73;;;17.07;;
21624;SDS011;10974;51.034;3.744;2023-01-23T20:55:06;21.10;;;15.33;;
21624;SDS011;10974;51.034;3.744;2023-01-23T20:57:32;25.80;;;18.33;;
21624;SDS011;10974;51.034;3.744;2023-01-23T21:00:17;22.97;;;17.97;;
21624;SDS011;10974;51.034;3.744;2023-01-23T21:02:43;20.23;;;15.00;;
21624;SDS011;10974;51.034;3.744;2023-01-23T21:05:09;17.23;;;14.80;;